Time;durP1;ratioP1;P1;durP2;ratioP2;P2;SDS_P1;SDS_P2;PMS_P1;PMS_P2;Temp;Humidity;BMP_temperature;BMP_pressure;BME280_temperature;BME280_humidity;BME280_pressure;Samples;Min_cycle;Max_cycle;Signal;HPM_P1;HPM_P2
2022/01/08 00:01:00;;;;;;;;;;;5.20;58.60;;;;;;5074017;28;19915;-73
2022/01/08 00:03:25;;;;;;;;;;;5.20;58.60;;;;;;5056288;28;19908;-73
2022/01/08 00:05:52;;;;;;;;;;;5.20;58.60;;;;;;5074029;28;20253;-72
2022/01/08 00:08:17;;;;;;;;;;;5.20;58.60;;;;;;5073978;28;19904;-72
2022/01/08 00:10:43;;;;;;;;;;;5.10;58.60;;;;;;5055974;28;20252;-72
2022/01/08 00:13:09;;;;;;;;;;;5.20;58.70;;;;;;5074291;28;19904;-72
2022/01/08 00:15:35;;;;;;;;;;;5.10;58.60;;;;;;5073622;28;19927;-72
2022/01/08 00:18:01;;;;;;;;;;;5.10;58.70;;;;;;5060275;28;19917;-72
2022/01/08 00:20:27;;;;;;;;;;;5.10;58.80;;;;;;5053876;28;19940;-73
2022/01/08 00:22:54;;;;;;;;;;;5.20;58.90;;;;;;5053581;28;19979;-72
2022/01/08 00:25:20;;;;;;;;;;;5.20;59.00;;;;;;5053516;28;19905;-72
2022/01/08 00:27:45;;;;;;;;;;;5.20;59.10;;;;;;5053892;28;20261;-73
2022/01/08 00:30:13;;;;;;;;;;;5.30;59.10;;;;;;5053744;28;20044;-73
2022/01/08 00:32:39;;;;;;;;;;;5.30;59.10;;;;;;5053656;28;19905;-73
2022/01/08 00:35:06;;;;;;;;;;;5.30;59.10;;;;;;5035848;28;19904;-72
2022/01/08 00:37:33;;;;;;;;;;;5.30;59.00;;;;;;5053476;28;19905;-72
2022/01/08 00:39:59;;;;;;;;;;;5.40;59.10;;;;;;5035215;28;19916;-73
2022/01/08 00:42:25;;;;;;;;;;;5.40;59.10;;;;;;5035817;28;19909;-72
2022/01/08 00:44:50;;;;;;;;;;;5.40;59.00;;;;;;5053592;28;19912;-72
2022/01/08 00:47:16;;;;;;;;;;;5.40;59.00;;;;;;5035730;28;19995;-72
2022/01/08 00:49:42;;;;;;;;;;;5.40;59.00;;;;;;5053329;28;19905;-72
2022/01/08 00:52:07;;;;;;;;;;;5.50;58.90;;;;;;5053848;28;19912;-72
2022/01/08 00:54:35;;;;;;;;;;;5.50;58.90;;;;;;5053189;28;20314;-72
2022/01/08 00:57:02;;;;;;;;;;;5.40;58.80;;;;;;5053755;28;19908;-72
2022/01/08 00:59:27;;;;;;;;;;;5.50;58.80;;;;;;5035538;28;19975;-72
2022/01/08 01:01:53;;;;;;;;;;;5.50;58.80;;;;;;5035532;28;20356;-72
2022/01/08 01:04:18;;;;;;;;;;;5.40;58.60;;;;;;5053342;28;19912;-72
2022/01/08 01:06:44;;;;;;;;;;;5.40;58.50;;;;;;5053388;28;20256;-72
2022/01/08 01:09:10;;;;;;;;;;;5.40;58.50;;;;;;5053301;28;19905;-74
2022/01/08 01:11:35;;;;;;;;;;;5.40;58.50;;;;;;5053350;28;20268;-73
2022/01/08 01:14:01;;;;;;;;;;;5.40;58.50;;;;;;5053300;28;19905;-73
2022/01/08 01:16:27;;;;;;;;;;;5.40;58.50;;;;;;5053459;28;19908;-72
2022/01/08 01:18:53;;;;;;;;;;;5.30;58.40;;;;;;5073338;28;20252;-72
2022/01/08 01:21:18;;;;;;;;;;;5.30;58.50;;;;;;5073209;28;19995;-72
2022/01/08 01:23:45;;;;;;;;;;;5.30;58.50;;;;;;5073332;28;19982;-73
2022/01/08 01:26:16;;;;;;;;;;;5.30;58.50;;;;;;5073280;28;19904;-73
2022/01/08 01:47:10;;;;;;;;;;;5.20;58.10;;;;;;5072676;28;19982;-72
2022/01/08 01:49:40;;;;;;;;;;;5.20;58.20;;;;;;5055545;28;19904;-72
2022/01/08 01:52:06;;;;;;;;;;;5.20;58.20;;;;;;5058735;28;19905;-73
2022/01/08 01:54:33;;;;;;;;;;;5.20;58.30;;;;;;5076537;28;19912;-70
2022/01/08 01:56:59;;;;;;;;;;;5.20;58.30;;;;;;5076134;28;20279;-72
2022/01/08 01:59:26;;;;;;;;;;;5.20;58.20;;;;;;5076366;28;19904;-72
2022/01/08 02:01:51;;;;;;;;;;;5.30;58.20;;;;;;5076280;28;19912;-72
2022/01/08 02:04:17;;;;;;;;;;;5.20;58.20;;;;;;5076088;28;19911;-72
2022/01/08 02:06:42;;;;;;;;;;;5.30;58.30;;;;;;5058217;28;19911;-72
2022/01/08 02:09:08;;;;;;;;;;;5.30;58.30;;;;;;5076095;28;20303;-72
2022/01/08 02:11:34;;;;;;;;;;;5.30;58.10;;;;;;5075910;28;19912;-71
2022/01/08 02:14:05;;;;;;;;;;;5.30;58.10;;;;;;5057878;28;19908;-74
2022/01/08 02:16:31;;;;;;;;;;;5.30;58.10;;;;;;5075883;28;19908;-71
2022/01/08 02:18:57;;;;;;;;;;;5.30;58.10;;;;;;5057972;28;19916;-72
2022/01/08 02:21:24;;;;;;;;;;;5.40;58.00;;;;;;5075863;28;19916;-72
2022/01/08 02:23:50;;;;;;;;;;;5.30;57.90;;;;;;5057863;28;19908;-72
2022/01/08 02:26:15;;;;;;;;;;;5.30;57.90;;;;;;5057891;28;20407;-72
2022/01/08 02:28:41;;;;;;;;;;;5.30;57.90;;;;;;5091372;28;20354;-72
2022/01/08 02:31:07;;;;;;;;;;;5.30;58.00;;;;;;5075683;28;19909;-72
2022/01/08 02:33:33;;;;;;;;;;;5.30;58.00;;;;;;5075741;28;19939;-74
2022/01/08 02:36:03;;;;;;;;;;;5.30;58.00;;;;;;5075687;28;19905;-72
2022/01/08 02:38:29;;;;;;;;;;;5.30;58.00;;;;;;5075609;28;19905;-72
2022/01/08 02:40:59;;;;;;;;;;;5.30;58.00;;;;;;5091122;28;20271;-72
2022/01/08 02:43:27;;;;;;;;;;;5.30;57.90;;;;;;5075555;28;19908;-72
2022/01/08 02:45:53;;;;;;;;;;;5.20;57.80;;;;;;5091091;28;19911;-72
2022/01/08 02:48:19;;;;;;;;;;;5.20;57.90;;;;;;5075462;28;19904;-72
2022/01/08 02:50:45;;;;;;;;;;;5.20;57.90;;;;;;5075195;28;19911;-72
2022/01/08 02:53:11;;;;;;;;;;;5.10;57.90;;;;;;5074958;28;20268;-72
2022/01/08 02:55:36;;;;;;;;;;;5.10;57.90;;;;;;5075283;28;19959;-73
2022/01/08 02:58:02;;;;;;;;;;;5.10;57.90;;;;;;5075249;28;19955;-72
2022/01/08 03:00:28;;;;;;;;;;;5.00;57.90;;;;;;5074794;28;19908;-71
2022/01/08 03:02:54;;;;;;;;;;;5.00;58.00;;;;;;5074121;28;19916;-71
2022/01/08 03:05:20;;;;;;;;;;;5.00;58.10;;;;;;5074748;28;19904;-72
2022/01/08 03:07:46;;;;;;;;;;;4.90;58.20;;;;;;5056955;28;19904;-72
2022/01/08 03:10:14;;;;;;;;;;;4.90;58.50;;;;;;5074937;28;19997;-72
2022/01/08 03:12:42;;;;;;;;;;;4.90;58.30;;;;;;5056862;28;20072;-72
2022/01/08 03:15:16;;;;;;;;;;;4.90;58.30;;;;;;5074892;28;19904;-72
2022/01/08 03:17:42;;;;;;;;;;;4.80;58.30;;;;;;5074422;28;19916;-72
2022/01/08 03:20:11;;;;;;;;;;;4.90;58.40;;;;;;5074899;28;20002;-72
2022/01/08 03:22:37;;;;;;;;;;;4.90;58.50;;;;;;5090307;28;20043;-73
2022/01/08 03:25:04;;;;;;;;;;;4.90;58.50;;;;;;5074983;28;19990;-72
2022/01/08 03:27:30;;;;;;;;;;;4.90;58.50;;;;;;5056713;28;19908;-72
2022/01/08 03:29:56;;;;;;;;;;;4.90;58.50;;;;;;5074361;28;19927;-72
2022/01/08 03:32:22;;;;;;;;;;;4.90;58.50;;;;;;5074605;28;19970;-72
2022/01/08 03:34:47;;;;;;;;;;;4.90;58.50;;;;;;5074233;28;19950;-72
2022/01/08 03:37:13;;;;;;;;;;;4.90;58.50;;;;;;5074459;28;20352;-73
2022/01/08 03:39:39;;;;;;;;;;;4.90;58.50;;;;;;5074130;28;20286;-72
2022/01/08 03:42:05;;;;;;;;;;;4.90;58.50;;;;;;5074427;28;19915;-72
2022/01/08 03:44:30;;;;;;;;;;;5.00;58.50;;;;;;5089927;28;19904;-72
2022/01/08 03:47:11;;;;;;;;;;;5.00;58.50;;;;;;5074081;28;19939;-72
2022/01/08 03:49:37;;;;;;;;;;;5.00;58.50;;;;;;5074011;28;19998;-73
2022/01/08 03:52:02;;;;;;;;;;;5.10;58.50;;;;;;5074178;28;20006;-72
2022/01/08 03:54:28;;;;;;;;;;;5.10;58.50;;;;;;5089791;28;20352;-72
2022/01/08 03:56:54;;;;;;;;;;;5.10;58.50;;;;;;5073828;28;19920;-72
2022/01/08 03:59:19;;;;;;;;;;;5.10;58.40;;;;;;5073977;28;19911;-72
2022/01/08 04:01:45;;;;;;;;;;;5.10;58.40;;;;;;5073991;28;19909;-73
2022/01/08 04:04:11;;;;;;;;;;;5.10;58.40;;;;;;5073714;28;19908;-72
2022/01/08 04:06:37;;;;;;;;;;;5.20;58.40;;;;;;5073647;28;19916;-72
2022/01/08 04:09:02;;;;;;;;;;;5.20;58.40;;;;;;5073655;28;19904;-72
2022/01/08 04:11:28;;;;;;;;;;;5.20;58.40;;;;;;5073473;28;19905;-72
2022/01/08 04:13:55;;;;;;;;;;;5.20;58.40;;;;;;5072649;28;19905;-72
2022/01/08 04:16:28;;;;;;;;;;;5.20;58.40;;;;;;5055709;28;20360;-72
2022/01/08 04:18:53;;;;;;;;;;;5.20;58.40;;;;;;5053763;28;19924;-72
2022/01/08 04:23:51;;;;;;;;;;;5.20;58.30;;;;;;5053651;28;19909;-72
2022/01/08 04:26:17;;;;;;;;;;;5.20;58.30;;;;;;5053617;28;19908;-72
2022/01/08 04:28:43;;;;;;;;;;;5.20;58.30;;;;;;5035794;28;19912;-71
2022/01/08 04:31:08;;;;;;;;;;;5.20;58.30;;;;;;5053460;28;19905;-72
2022/01/08 04:33:34;;;;;;;;;;;5.20;58.30;;;;;;5035587;28;19980;-72
2022/01/08 04:35:59;;;;;;;;;;;5.20;58.30;;;;;;5053474;28;19911;-72
2022/01/08 04:38:25;;;;;;;;;;;5.20;58.30;;;;;;5053426;28;19959;-73
2022/01/08 04:40:50;;;;;;;;;;;5.20;58.30;;;;;;5053019;28;19918;-73
2022/01/08 04:43:16;;;;;;;;;;;5.10;58.30;;;;;;5053307;28;19960;-72
2022/01/08 04:45:43;;;;;;;;;;;5.20;58.40;;;;;;5035486;28;20234;-72
2022/01/08 04:48:08;;;;;;;;;;;5.20;58.40;;;;;;5035188;28;19959;-72
2022/01/08 04:50:34;;;;;;;;;;;5.10;58.30;;;;;;5053360;28;19909;-72
2022/01/08 04:53:00;;;;;;;;;;;5.10;58.40;;;;;;5053025;28;19940;-72
2022/01/08 04:55:26;;;;;;;;;;;5.10;58.40;;;;;;5035361;28;19912;-72
2022/01/08 04:57:51;;;;;;;;;;;5.20;58.50;;;;;;5053262;28;20018;-73
2022/01/08 05:00:18;;;;;;;;;;;5.20;58.40;;;;;;5053251;28;19909;-71
2022/01/08 05:02:43;;;;;;;;;;;5.20;58.40;;;;;;5053687;28;20332;-72
2022/01/08 05:05:10;;;;;;;;;;;5.20;58.50;;;;;;5053270;28;20008;-72
2022/01/08 05:07:36;;;;;;;;;;;5.20;58.50;;;;;;5053038;28;20349;-72
2022/01/08 05:10:02;;;;;;;;;;;5.20;58.50;;;;;;5052813;28;19912;-72
2022/01/08 05:12:27;;;;;;;;;;;5.20;58.50;;;;;;5053213;28;19911;-72
2022/01/08 05:14:54;;;;;;;;;;;5.20;58.50;;;;;;5053121;28;19987;-72
2022/01/08 05:17:25;;;;;;;;;;;5.20;58.50;;;;;;5060375;28;19917;-72
2022/01/08 05:19:51;;;;;;;;;;;5.20;58.50;;;;;;5073146;28;19947;-72
2022/01/08 05:22:31;;;;;;;;;;;5.20;58.50;;;;;;5073111;28;19919;-72
2022/01/08 05:24:57;;;;;;;;;;;5.20;58.40;;;;;;5056199;28;19915;-72
2022/01/08 05:27:23;;;;;;;;;;;5.10;58.40;;;;;;5076986;28;19904;-72
2022/01/08 05:29:50;;;;;;;;;;;5.10;58.30;;;;;;5059048;28;19911;-72
2022/01/08 05:32:16;;;;;;;;;;;5.00;58.20;;;;;;5059021;28;19908;-72
2022/01/08 05:34:49;;;;;;;;;;;5.00;58.20;;;;;;5058964;28;19912;-72
2022/01/08 05:37:16;;;;;;;;;;;4.90;58.10;;;;;;5077190;28;19904;-72
2022/01/08 05:39:41;;;;;;;;;;;4.90;58.10;;;;;;5076251;28;19904;-72
2022/01/08 05:42:07;;;;;;;;;;;4.80;58.00;;;;;;5076696;28;19909;-72
2022/01/08 05:44:33;;;;;;;;;;;4.70;58.00;;;;;;5076359;28;19905;-74
2022/01/08 05:47:00;;;;;;;;;;;4.70;58.10;;;;;;5076651;28;19905;-72
2022/01/08 05:49:25;;;;;;;;;;;4.60;58.00;;;;;;5076859;28;20251;-71
2022/01/08 05:51:51;;;;;;;;;;;4.50;58.00;;;;;;5076199;28;19904;-73
2022/01/08 05:54:17;;;;;;;;;;;4.40;58.00;;;;;;5076516;28;19909;-72
2022/01/08 05:56:42;;;;;;;;;;;4.30;58.00;;;;;;5076446;28;19904;-72
2022/01/08 05:59:08;;;;;;;;;;;4.30;58.10;;;;;;5076105;28;20248;-72
2022/01/08 06:01:34;;;;;;;;;;;4.20;58.10;;;;;;5076264;28;19947;-72
2022/01/08 06:04:00;;;;;;;;;;;4.10;58.10;;;;;;5076158;28;19909;-72
2022/01/08 06:06:26;;;;;;;;;;;4.00;58.20;;;;;;5058300;28;20229;-72
2022/01/08 06:08:51;;;;;;;;;;;4.00;58.20;;;;;;5075841;28;19912;-72
2022/01/08 06:11:17;;;;;;;;;;;3.90;58.20;;;;;;5075937;28;19904;-72
2022/01/08 06:13:43;;;;;;;;;;;3.90;58.30;;;;;;5076460;28;19909;-72
2022/01/08 06:16:08;;;;;;;;;;;3.80;58.30;;;;;;5076041;28;19904;-72
2022/01/08 06:18:34;;;;;;;;;;;3.70;58.40;;;;;;5075606;28;19920;-72
2022/01/08 06:21:01;;;;;;;;;;;3.70;58.50;;;;;;5091464;28;20393;-73
2022/01/08 06:23:27;;;;;;;;;;;3.70;58.50;;;;;;5076047;28;20069;-73
2022/01/08 06:25:53;;;;;;;;;;;3.60;58.60;;;;;;5075947;28;19904;-73
2022/01/08 06:28:18;;;;;;;;;;;3.60;58.70;;;;;;5075832;28;19911;-72
2022/01/08 06:30:44;;;;;;;;;;;3.50;58.70;;;;;;5075869;28;19905;-72
2022/01/08 06:33:09;;;;;;;;;;;3.50;58.80;;;;;;5075442;28;20292;-72
2022/01/08 06:35:35;;;;;;;;;;;3.50;58.80;;;;;;5091067;28;20252;-72
2022/01/08 06:38:01;;;;;;;;;;;3.40;58.80;;;;;;5075265;28;19905;-72
2022/01/08 06:40:26;;;;;;;;;;;3.40;58.90;;;;;;5091133;28;19966;-72
2022/01/08 06:42:52;;;;;;;;;;;3.30;58.90;;;;;;5075599;28;19908;-72
2022/01/08 06:45:17;;;;;;;;;;;3.30;58.90;;;;;;5075921;28;19940;-72
2022/01/08 06:47:45;;;;;;;;;;;3.30;58.90;;;;;;5075346;28;20406;-72
2022/01/08 06:50:11;;;;;;;;;;;3.20;58.90;;;;;;5075947;28;20236;-72
2022/01/08 06:52:37;;;;;;;;;;;3.20;59.00;;;;;;5075921;28;19952;-72
2022/01/08 06:55:03;;;;;;;;;;;3.20;59.10;;;;;;5075356;28;19904;-72
2022/01/08 06:57:29;;;;;;;;;;;3.20;59.20;;;;;;5057223;28;20308;-72
2022/01/08 06:59:54;;;;;;;;;;;3.10;59.20;;;;;;5074868;28;19909;-72
2022/01/08 07:02:20;;;;;;;;;;;3.10;59.30;;;;;;5090775;28;19915;-72
2022/01/08 07:04:45;;;;;;;;;;;3.10;59.40;;;;;;5075167;28;19912;-72
2022/01/08 07:07:11;;;;;;;;;;;3.10;59.50;;;;;;5074802;28;19905;-72
2022/01/08 07:09:36;;;;;;;;;;;3.10;59.60;;;;;;5074866;28;20347;-72
2022/01/08 07:12:02;;;;;;;;;;;3.10;59.80;;;;;;5057069;28;19939;-72
2022/01/08 07:14:28;;;;;;;;;;;3.10;60.00;;;;;;5090559;28;19994;-72
2022/01/08 07:16:54;;;;;;;;;;;3.10;60.10;;;;;;5074661;28;19916;-72
2022/01/08 07:19:20;;;;;;;;;;;3.20;60.40;;;;;;5056938;28;19908;-72
2022/01/08 07:21:46;;;;;;;;;;;3.30;60.60;;;;;;5056743;28;19954;-72
2022/01/08 07:24:11;;;;;;;;;;;3.40;60.80;;;;;;5074379;28;19908;-72
2022/01/08 07:26:37;;;;;;;;;;;3.50;61.10;;;;;;5074766;28;20302;-72
2022/01/08 07:29:03;;;;;;;;;;;3.60;61.20;;;;;;5074556;28;19915;-73
2022/01/08 07:31:28;;;;;;;;;;;3.70;61.30;;;;;;5056684;28;19904;-72
2022/01/08 07:33:54;;;;;;;;;;;3.80;61.30;;;;;;5074635;28;19912;-72
2022/01/08 07:36:20;;;;;;;;;;;3.90;61.30;;;;;;5074561;28;20006;-72
2022/01/08 07:38:49;;;;;;;;;;;4.00;61.20;;;;;;5074492;28;19931;-72
2022/01/08 07:41:15;;;;;;;;;;;4.00;61.10;;;;;;5056151;28;19952;-72
2022/01/08 07:43:40;;;;;;;;;;;4.10;61.10;;;;;;5074419;28;19916;-72
2022/01/08 07:46:06;;;;;;;;;;;4.20;61.00;;;;;;5074030;28;20423;-72
2022/01/08 07:48:32;;;;;;;;;;;4.30;60.90;;;;;;5089688;28;20375;-72
2022/01/08 07:50:58;;;;;;;;;;;4.30;60.80;;;;;;5056259;28;19954;-72
2022/01/08 07:53:23;;;;;;;;;;;4.40;60.70;;;;;;5056336;28;19904;-72
2022/01/08 07:55:49;;;;;;;;;;;4.40;60.70;;;;;;5089772;28;19928;-72
2022/01/08 07:58:20;;;;;;;;;;;4.50;60.60;;;;;;5073844;28;20307;-73
2022/01/08 08:00:49;;;;;;;;;;;4.60;60.50;;;;;;5074072;28;19912;-72
2022/01/08 08:03:15;;;;;;;;;;;4.60;60.50;;;;;;5055986;28;19908;-72
2022/01/08 08:05:40;;;;;;;;;;;4.70;60.50;;;;;;5073609;28;19911;-72
2022/01/08 08:08:06;;;;;;;;;;;4.80;60.50;;;;;;5074128;28;19909;-72
2022/01/08 08:10:32;;;;;;;;;;;4.80;60.50;;;;;;5073930;28;19904;-72
2022/01/08 08:12:58;;;;;;;;;;;4.90;60.50;;;;;;5055944;28;20244;-72
2022/01/08 08:15:24;;;;;;;;;;;5.00;60.40;;;;;;5055910;28;20362;-72
2022/01/08 08:17:50;;;;;;;;;;;5.10;60.40;;;;;;5073512;28;19917;-71
2022/01/08 08:20:15;;;;;;;;;;;5.10;60.30;;;;;;5055683;28;20007;-72
2022/01/08 08:22:41;;;;;;;;;;;5.20;60.30;;;;;;5073441;28;19908;-72
2022/01/08 08:25:07;;;;;;;;;;;5.30;60.40;;;;;;5073710;28;19994;-72
2022/01/08 08:27:33;;;;;;;;;;;5.30;60.30;;;;;;5055580;28;19934;-72
2022/01/08 08:29:59;;;;;;;;;;;5.40;60.30;;;;;;5074003;28;19904;-73
2022/01/08 08:32:24;;;;;;;;;;;5.50;60.30;;;;;;5073413;28;19905;-72
2022/01/08 08:34:53;;;;;;;;;;;5.50;60.20;;;;;;5055201;28;19904;-72
2022/01/08 08:37:19;;;;;;;;;;;5.50;60.00;;;;;;5055631;28;19978;-72
2022/01/08 08:39:44;;;;;;;;;;;5.60;59.90;;;;;;5073197;28;19908;-72
2022/01/08 08:42:10;;;;;;;;;;;5.60;59.80;;;;;;5073384;28;19924;-72
2022/01/08 08:44:36;;;;;;;;;;;5.70;59.80;;;;;;5073764;28;20170;-72
2022/01/08 08:47:03;;;;;;;;;;;5.70;59.70;;;;;;5073497;28;19904;-72
2022/01/08 08:49:29;;;;;;;;;;;5.80;59.70;;;;;;5073388;28;19962;-73
2022/01/08 08:51:54;;;;;;;;;;;5.90;59.70;;;;;;5055371;28;19904;-72
2022/01/08 08:54:20;;;;;;;;;;;5.90;59.70;;;;;;5073303;28;19904;-72
2022/01/08 08:56:45;;;;;;;;;;;5.90;59.70;;;;;;5073120;28;19905;-72
2022/01/08 08:59:11;;;;;;;;;;;6.00;59.70;;;;;;5073139;28;20359;-73
2022/01/08 09:01:40;;;;;;;;;;;6.10;59.70;;;;;;5077430;28;20042;-72
2022/01/08 09:04:06;;;;;;;;;;;6.20;60.20;;;;;;5077455;28;19908;-72
2022/01/08 09:06:32;;;;;;;;;;;6.30;59.60;;;;;;5077473;28;19927;-72
2022/01/08 09:08:57;;;;;;;;;;;6.30;59.50;;;;;;5077357;28;19911;-72
2022/01/08 09:11:23;;;;;;;;;;;6.40;59.30;;;;;;5077105;28;19912;-72
2022/01/08 09:13:49;;;;;;;;;;;6.40;59.30;;;;;;5077305;28;20290;-72
2022/01/08 09:16:15;;;;;;;;;;;6.40;59.30;;;;;;5059094;28;19944;-73
2022/01/08 09:18:41;;;;;;;;;;;6.50;59.20;;;;;;5077053;28;19959;-72
2022/01/08 09:21:08;;;;;;;;;;;6.50;59.10;;;;;;5076932;28;19912;-72
2022/01/08 09:23:33;;;;;;;;;;;6.50;59.00;;;;;;5077035;28;19915;-72
2022/01/08 09:25:59;;;;;;;;;;;6.50;58.90;;;;;;5076726;28;19905;-72
2022/01/08 09:28:26;;;;;;;;;;;6.50;58.90;;;;;;5059026;28;20189;-72
2022/01/08 09:30:51;;;;;;;;;;;6.50;58.90;;;;;;5077537;28;19905;-73
2022/01/08 09:33:17;;;;;;;;;;;6.60;58.90;;;;;;5076863;28;19911;-72
2022/01/08 09:35:43;;;;;;;;;;;6.60;58.80;;;;;;5058851;28;19908;-72
2022/01/08 09:38:09;;;;;;;;;;;6.60;58.80;;;;;;5092383;28;19905;-72
2022/01/08 09:40:34;;;;;;;;;;;6.70;58.70;;;;;;5076504;28;19909;-72
2022/01/08 09:43:00;;;;;;;;;;;6.70;58.60;;;;;;5076510;28;19909;-72
2022/01/08 09:45:26;;;;;;;;;;;6.80;58.70;;;;;;5076539;28;19904;-72
2022/01/08 09:47:52;;;;;;;;;;;6.80;58.80;;;;;;5058695;28;20347;-72
2022/01/08 09:50:18;;;;;;;;;;;6.90;58.70;;;;;;5076647;28;19958;-72
2022/01/08 09:52:44;;;;;;;;;;;6.90;58.70;;;;;;5076564;28;19904;-73
2022/01/08 09:55:09;;;;;;;;;;;7.00;58.50;;;;;;5076266;28;19904;-72
2022/01/08 09:57:35;;;;;;;;;;;7.00;58.40;;;;;;5076469;28;19992;-72
2022/01/08 10:00:19;;;;;;;;;;;7.10;58.40;;;;;;5076256;28;19954;-72
2022/01/08 10:02:45;;;;;;;;;;;7.10;58.40;;;;;;5075823;28;20340;-73
2022/01/08 10:05:12;;;;;;;;;;;7.10;58.30;;;;;;5076210;28;19904;-72
2022/01/08 10:07:38;;;;;;;;;;;7.20;58.20;;;;;;5076667;28;19959;-72
2022/01/08 10:10:13;;;;;;;;;;;7.20;58.20;;;;;;5076204;28;19905;-73
2022/01/08 10:12:45;;;;;;;;;;;7.20;58.00;;;;;;5058218;28;19904;-72
2022/01/08 10:17:59;;;;;;;;;;;7.20;58.20;;;;;;5075802;28;19971;-72
2022/01/08 10:20:39;;;;;;;;;;;7.20;58.20;;;;;;5075894;28;19982;-72
2022/01/08 10:23:08;;;;;;;;;;;7.20;58.10;;;;;;5058059;28;19915;-73
2022/01/08 10:25:33;;;;;;;;;;;7.30;58.10;;;;;;5075957;28;19904;-73
2022/01/08 10:27:59;;;;;;;;;;;7.30;58.00;;;;;;5091478;28;20344;-73
2022/01/08 10:30:25;;;;;;;;;;;7.40;58.00;;;;;;5076195;28;19911;-72
2022/01/08 10:32:55;;;;;;;;;;;7.40;58.00;;;;;;5075854;28;19905;-72
2022/01/08 10:35:40;;;;;;;;;;;7.40;57.90;;;;;;5091379;28;19904;-72
2022/01/08 10:38:06;;;;;;;;;;;7.40;57.90;;;;;;5075797;28;20264;-73
2022/01/08 10:40:35;;;;;;;;;;;7.50;58.00;;;;;;5075807;28;19909;-72
2022/01/08 10:43:00;;;;;;;;;;;7.60;58.20;;;;;;5091292;28;19908;-73
2022/01/08 10:45:32;;;;;;;;;;;7.60;58.20;;;;;;5075601;28;20345;-71
2022/01/08 10:48:04;;;;;;;;;;;7.60;58.10;;;;;;5091297;28;19911;-71
2022/01/08 10:50:30;;;;;;;;;;;7.70;58.00;;;;;;5057825;28;20247;-71
2022/01/08 10:52:57;;;;;;;;;;;7.80;57.90;;;;;;5075550;28;19904;-71
2022/01/08 10:55:33;;;;;;;;;;;7.80;57.80;;;;;;5057438;28;19905;-71
2022/01/08 10:57:58;;;;;;;;;;;7.80;57.60;;;;;;5057456;28;19911;-71
2022/01/08 11:00:31;;;;;;;;;;;7.80;57.50;;;;;;5074917;28;19925;-71
2022/01/08 11:02:57;;;;;;;;;;;7.80;57.50;;;;;;5057114;28;19961;-71
2022/01/08 11:05:23;;;;;;;;;;;7.80;57.60;;;;;;5075288;28;19980;-71
2022/01/08 11:07:48;;;;;;;;;;;7.80;57.50;;;;;;5075177;28;19974;-71
2022/01/08 11:10:22;;;;;;;;;;;7.80;57.50;;;;;;5057283;28;19905;-71
2022/01/08 11:12:51;;;;;;;;;;;7.80;57.50;;;;;;5075194;28;20298;-71
2022/01/08 11:17:50;;;;;;;;;;;7.80;57.60;;;;;;5074936;28;20351;-71
2022/01/08 11:20:18;;;;;;;;;;;7.80;57.60;;;;;;5074663;28;19917;-72
2022/01/08 11:22:50;;;;;;;;;;;7.70;57.50;;;;;;5074188;28;19916;-71
2022/01/08 11:25:23;;;;;;;;;;;7.80;57.70;;;;;;5074751;28;19928;-72
2022/01/08 11:27:56;;;;;;;;;;;7.80;57.90;;;;;;5056767;28;20015;-72
2022/01/08 11:30:23;;;;;;;;;;;7.90;57.90;;;;;;5074874;28;19999;-72
2022/01/08 11:32:50;;;;;;;;;;;7.90;57.90;;;;;;5074767;28;20229;-72
2022/01/08 11:35:17;;;;;;;;;;;8.00;57.80;;;;;;5056916;28;19958;-73
2022/01/08 11:37:46;;;;;;;;;;;8.00;57.80;;;;;;5056572;28;19904;-72
2022/01/08 11:40:13;;;;;;;;;;;8.00;57.60;;;;;;5056555;28;19908;-72
2022/01/08 11:42:39;;;;;;;;;;;8.00;57.50;;;;;;5056650;28;19959;-71
2022/01/08 11:45:07;;;;;;;;;;;8.00;57.50;;;;;;5074553;28;20054;-72
2022/01/08 11:47:33;;;;;;;;;;;8.10;57.60;;;;;;5056412;28;19905;-74
2022/01/08 11:50:00;;;;;;;;;;;8.10;57.40;;;;;;5074372;28;20233;-72
2022/01/08 11:52:25;;;;;;;;;;;8.10;57.30;;;;;;5056421;28;19904;-72
2022/01/08 11:54:54;;;;;;;;;;;8.10;57.30;;;;;;5056391;28;19905;-72
2022/01/08 11:57:21;;;;;;;;;;;8.10;57.20;;;;;;5074202;28;19905;-71
2022/01/08 11:59:48;;;;;;;;;;;8.10;57.20;;;;;;5074465;28;19908;-72
2022/01/08 12:02:14;;;;;;;;;;;8.10;57.10;;;;;;5074264;28;19915;-71
2022/01/08 12:04:42;;;;;;;;;;;8.10;57.20;;;;;;5056211;28;19909;-72
2022/01/08 12:07:23;;;;;;;;;;;8.10;57.20;;;;;;5074769;28;20290;-71
2022/01/08 12:10:01;;;;;;;;;;;8.10;57.20;;;;;;5089680;28;19971;-72
2022/01/08 12:12:42;;;;;;;;;;;8.10;57.20;;;;;;5074131;28;19908;-72
2022/01/08 12:15:08;;;;;;;;;;;8.00;57.10;;;;;;5073722;28;19912;-72
2022/01/08 12:17:50;;;;;;;;;;;8.00;57.10;;;;;;5073827;28;19917;-71
2022/01/08 12:20:36;;;;;;;;;;;8.00;57.00;;;;;;5073826;28;19947;-73
2022/01/08 12:23:20;;;;;;;;;;;8.00;57.00;;;;;;5073519;28;19956;-71
2022/01/08 12:25:46;;;;;;;;;;;8.00;56.90;;;;;;5073424;28;19905;-72
2022/01/08 12:28:31;;;;;;;;;;;8.00;56.90;;;;;;5089362;28;20272;-72
2022/01/08 12:31:17;;;;;;;;;;;7.90;56.90;;;;;;5073398;28;20006;-72
2022/01/08 12:33:42;;;;;;;;;;;7.90;56.80;;;;;;5072995;28;19957;-72
2022/01/08 12:36:25;;;;;;;;;;;7.90;56.80;;;;;;5073277;28;19916;-71
2022/01/08 12:39:00;;;;;;;;;;;7.80;56.70;;;;;;5073404;28;19911;-72
2022/01/08 12:41:25;;;;;;;;;;;7.80;56.80;;;;;;5089237;28;20007;-72
2022/01/08 12:43:51;;;;;;;;;;;7.70;56.80;;;;;;5073889;28;20398;-71
2022/01/08 12:46:22;;;;;;;;;;;7.70;56.80;;;;;;5073554;28;20271;-72
2022/01/08 12:49:05;;;;;;;;;;;7.60;56.80;;;;;;5073890;28;19919;-71
2022/01/08 12:51:52;;;;;;;;;;;7.60;56.90;;;;;;5088776;28;19908;-72
2022/01/08 12:54:20;;;;;;;;;;;7.50;57.00;;;;;;5089085;28;19904;-72
2022/01/08 12:56:51;;;;;;;;;;;7.50;57.10;;;;;;5055465;28;19905;-71
2022/01/08 12:59:17;;;;;;;;;;;7.50;57.30;;;;;;5088827;28;19909;-72
2022/01/08 13:01:47;;;;;;;;;;;7.50;57.30;;;;;;5073321;28;19962;-71
2022/01/08 13:04:18;;;;;;;;;;;7.50;57.30;;;;;;5073149;28;19909;-71
2022/01/08 13:06:44;;;;;;;;;;;7.50;57.30;;;;;;5088869;28;20409;-72
2022/01/08 13:09:10;;;;;;;;;;;7.50;57.40;;;;;;5088845;28;20247;-72
2022/01/08 13:11:36;;;;;;;;;;;7.60;57.50;;;;;;5073000;28;19904;-71
2022/01/08 13:14:03;;;;;;;;;;;7.60;57.60;;;;;;5055312;28;20303;-72
2022/01/08 13:16:32;;;;;;;;;;;7.60;57.50;;;;;;5055086;28;19916;-72
2022/01/08 13:18:59;;;;;;;;;;;7.60;57.50;;;;;;5088867;28;19909;-72
2022/01/08 13:21:28;;;;;;;;;;;7.60;57.50;;;;;;5055144;28;19914;-72
2022/01/08 13:23:54;;;;;;;;;;;7.60;57.50;;;;;;5072940;28;20318;-72
2022/01/08 13:26:34;;;;;;;;;;;7.70;57.60;;;;;;5073235;28;19966;-72
2022/01/08 13:29:00;;;;;;;;;;;7.70;57.60;;;;;;5072905;28;19952;-72
2022/01/08 13:31:58;;;;;;;;;;;7.70;57.60;;;;;;5055249;28;19912;-71
2022/01/08 13:34:25;;;;;;;;;;;7.70;57.60;;;;;;4994413;28;19905;-71
2022/01/08 13:36:52;;;;;;;;;;;7.80;57.60;;;;;;5011009;28;19965;-71
2022/01/08 13:39:50;;;;;;;;;;;7.80;57.70;;;;;;5011124;28;19906;-71
2022/01/08 13:42:36;;;;;;;;;;;7.70;57.70;;;;;;4952761;29;19921;-72
2022/01/08 13:45:15;;;;;;;;;;;7.70;57.60;;;;;;4952586;28;19912;-71
2022/01/08 13:47:48;;;;;;;;;;;7.70;57.70;;;;;;4956438;29;20356;-72
2022/01/08 13:50:23;;;;;;;;;;;7.60;57.80;;;;;;4940499;29;20050;-72
2022/01/08 13:52:57;;;;;;;;;;;7.60;57.90;;;;;;4956261;29;20492;-71
2022/01/08 13:55:27;;;;;;;;;;;7.60;58.00;;;;;;4940229;29;19914;-71
2022/01/08 13:58:15;;;;;;;;;;;7.50;58.10;;;;;;4939868;29;19940;-71
2022/01/08 14:00:42;;;;;;;;;;;7.50;58.20;;;;;;4936841;29;20367;-71
2022/01/08 14:03:27;;;;;;;;;;;7.50;58.30;;;;;;4936719;29;20008;-71
2022/01/08 14:05:54;;;;;;;;;;;7.50;58.40;;;;;;4937133;29;19907;-71
2022/01/08 14:08:19;;;;;;;;;;;7.50;58.40;;;;;;4920891;29;19914;-71
2022/01/08 14:10:46;;;;;;;;;;;7.40;58.50;;;;;;4967978;28;20302;-71
2022/01/08 14:13:14;;;;;;;;;;;7.40;58.40;;;;;;4975279;28;20282;-72
2022/01/08 14:15:41;;;;;;;;;;;7.40;58.50;;;;;;4975468;28;20251;-71
2022/01/08 14:18:19;;;;;;;;;;;7.40;58.50;;;;;;5006951;28;20272;-72
2022/01/08 14:20:45;;;;;;;;;;;7.40;58.50;;;;;;5038288;28;19920;-71
2022/01/08 14:23:12;;;;;;;;;;;7.40;58.50;;;;;;5056139;28;19909;-71
2022/01/08 14:25:37;;;;;;;;;;;7.40;58.50;;;;;;5056105;28;19908;-71
2022/01/08 14:28:21;;;;;;;;;;;7.40;58.50;;;;;;5055939;28;19912;-72
2022/01/08 14:30:47;;;;;;;;;;;7.40;58.40;;;;;;5055699;28;19919;-71
2022/01/08 14:33:13;;;;;;;;;;;7.40;58.30;;;;;;5055634;28;20349;-71
2022/01/08 14:35:39;;;;;;;;;;;7.40;58.30;;;;;;5055771;28;19904;-72
2022/01/08 14:38:04;;;;;;;;;;;7.40;58.30;;;;;;5055953;28;19905;-72
2022/01/08 14:40:32;;;;;;;;;;;7.40;58.30;;;;;;5056124;28;20341;-72
2022/01/08 14:43:00;;;;;;;;;;;7.40;58.20;;;;;;5071211;28;19917;-70
2022/01/08 14:45:26;;;;;;;;;;;7.40;58.20;;;;;;5071533;28;19905;-72
2022/01/08 14:47:52;;;;;;;;;;;7.40;58.20;;;;;;5055798;28;19905;-71
2022/01/08 14:50:19;;;;;;;;;;;7.40;58.00;;;;;;5055664;28;19905;-72
2022/01/08 14:52:45;;;;;;;;;;;7.40;58.00;;;;;;5037654;28;20352;-71
2022/01/08 14:55:13;;;;;;;;;;;7.40;57.90;;;;;;5043588;28;19912;-71
2022/01/08 14:57:39;;;;;;;;;;;7.30;57.70;;;;;;5074307;28;19904;-72
2022/01/08 15:00:06;;;;;;;;;;;7.30;57.60;;;;;;5091023;28;19908;-72